Time;durP1;ratioP1;P1;durP2;ratioP2;P2;SDS_P1;SDS_P2;PMS_P1;PMS_P2;Temp;Humidity;BMP_temperature;BMP_pressure;BME280_temperature;BME280_humidity;BME280_pressure;Samples;Min_cycle;Max_cycle;Signal;HPM_P1;HPM_P2
2022/09/17 00:01:04;;;;;;;;;;;14.40;85.70;;;;;;5086801;28;19966;-67
2022/09/17 00:03:30;;;;;;;;;;;14.40;85.80;;;;;;5081452;28;20267;-66
2022/09/17 00:06:09;;;;;;;;;;;14.40;85.60;;;;;;5086525;28;19912;-66
2022/09/17 00:08:35;;;;;;;;;;;14.40;85.90;;;;;;5081851;28;19916;-66
2022/09/17 00:11:07;;;;;;;;;;;14.40;85.90;;;;;;5085632;28;19920;-65
2022/09/17 00:13:32;;;;;;;;;;;14.40;85.90;;;;;;5084539;28;19920;-66
2022/09/17 00:15:58;;;;;;;;;;;14.40;85.90;;;;;;5085823;28;19981;-66
2022/09/17 00:18:24;;;;;;;;;;;14.40;86.00;;;;;;5083554;28;19923;-66
2022/09/17 00:20:49;;;;;;;;;;;14.30;86.10;;;;;;5083942;28;19982;-66
2022/09/17 00:23:15;;;;;;;;;;;14.30;86.10;;;;;;5084362;28;19962;-66
2022/09/17 00:25:41;;;;;;;;;;;14.40;86.00;;;;;;5101132;28;20368;-66
2022/09/17 00:28:07;;;;;;;;;;;14.30;86.20;;;;;;5087157;28;20003;-66
2022/09/17 00:30:33;;;;;;;;;;;14.30;85.90;;;;;;5085266;28;19995;-66
2022/09/17 00:32:58;;;;;;;;;;;14.30;86.10;;;;;;5083676;28;19924;-66
2022/09/17 00:35:24;;;;;;;;;;;14.30;86.10;;;;;;5086214;28;19908;-66
2022/09/17 00:37:50;;;;;;;;;;;14.30;86.20;;;;;;5083233;28;20381;-66
2022/09/17 00:40:15;;;;;;;;;;;14.30;86.30;;;;;;5085715;28;19912;-66
2022/09/17 00:42:41;;;;;;;;;;;14.30;86.30;;;;;;5085699;28;19922;-67
2022/09/17 00:45:08;;;;;;;;;;;14.30;86.30;;;;;;5081273;28;19912;-66
2022/09/17 00:47:34;;;;;;;;;;;14.20;86.20;;;;;;5085917;28;19938;-66
2022/09/17 00:50:16;;;;;;;;;;;14.20;86.30;;;;;;5082741;28;19920;-68
2022/09/17 00:52:41;;;;;;;;;;;14.20;86.10;;;;;;5085048;28;19916;-67
2022/09/17 00:55:13;;;;;;;;;;;14.20;86.10;;;;;;5082263;28;20293;-68
2022/09/17 00:57:39;;;;;;;;;;;14.20;86.20;;;;;;5106033;27;20029;-66
2022/09/17 01:00:07;;;;;;;;;;;14.20;86.30;;;;;;5113632;27;20439;-66
2022/09/17 01:02:33;;;;;;;;;;;14.20;86.40;;;;;;5085401;28;19912;-66
2022/09/17 01:04:59;;;;;;;;;;;14.20;86.30;;;;;;5079434;28;19970;-66
2022/09/17 01:07:36;;;;;;;;;;;14.20;86.30;;;;;;5085594;28;19916;-66
2022/09/17 01:10:07;;;;;;;;;;;14.20;86.40;;;;;;5083203;28;20007;-66
2022/09/17 01:13:07;;;;;;;;;;;14.10;86.20;;;;;;5086902;28;20014;-66
2022/09/17 01:15:33;;;;;;;;;;;14.20;86.40;;;;;;5035778;28;20635;-66
2022/09/17 01:18:07;;;;;;;;;;;14.20;86.50;;;;;;5075276;28;19920;-68
2022/09/17 01:20:35;;;;;;;;;;;14.20;86.30;;;;;;5080303;28;19913;-68
2022/09/17 01:23:27;;;;;;;;;;;14.10;86.50;;;;;;5085581;28;20028;-68
2022/09/17 01:26:11;;;;;;;;;;;14.10;86.50;;;;;;5070917;28;19999;-68
2022/09/17 01:28:43;;;;;;;;;;;14.10;86.50;;;;;;5085290;28;19923;-68
2022/09/17 01:31:21;;;;;;;;;;;14.10;86.60;;;;;;5081199;28;19916;-68
2022/09/17 01:33:52;;;;;;;;;;;14.10;86.50;;;;;;5082387;28;19916;-68
2022/09/17 01:36:37;;;;;;;;;;;14.00;86.50;;;;;;5082241;28;19916;-68
2022/09/17 01:39:06;;;;;;;;;;;14.10;86.60;;;;;;5084858;28;20002;-68
2022/09/17 01:41:38;;;;;;;;;;;14.10;86.60;;;;;;5081256;28;19912;-68
2022/09/17 01:44:09;;;;;;;;;;;14.00;86.60;;;;;;5085290;28;19919;-68
2022/09/17 01:46:55;;;;;;;;;;;14.00;86.60;;;;;;5082561;28;20006;-68
2022/09/17 01:49:24;;;;;;;;;;;14.00;86.50;;;;;;5101096;28;19912;-68
2022/09/17 01:51:50;;;;;;;;;;;14.00;86.60;;;;;;5082415;28;19920;-68
2022/09/17 01:54:24;;;;;;;;;;;14.00;86.60;;;;;;5089819;28;19973;-68
2022/09/17 01:56:52;;;;;;;;;;;14.00;86.70;;;;;;5083298;28;19997;-68
2022/09/17 01:59:21;;;;;;;;;;;14.00;86.70;;;;;;5089450;28;19938;-68
2022/09/17 02:01:48;;;;;;;;;;;14.00;86.70;;;;;;5086087;28;19916;-68
2022/09/17 02:04:18;;;;;;;;;;;14.00;86.60;;;;;;5089523;28;19943;-68
2022/09/17 02:06:45;;;;;;;;;;;14.00;86.70;;;;;;5086585;28;19912;-68
2022/09/17 02:09:14;;;;;;;;;;;14.00;86.70;;;;;;5089142;28;19947;-68
2022/09/17 02:11:42;;;;;;;;;;;14.00;86.60;;;;;;5085844;28;23521;-68
2022/09/17 02:14:27;;;;;;;;;;;14.00;86.70;;;;;;5089250;28;20003;-68
2022/09/17 02:16:55;;;;;;;;;;;13.90;86.70;;;;;;5084453;28;19918;-68
2022/09/17 02:19:27;;;;;;;;;;;13.90;86.70;;;;;;5088361;28;20584;-68
2022/09/17 02:21:52;;;;;;;;;;;13.90;86.60;;;;;;5081436;28;19916;-68
2022/09/17 02:24:25;;;;;;;;;;;13.90;86.70;;;;;;5088622;28;19916;-68
2022/09/17 02:27:18;;;;;;;;;;;13.90;86.60;;;;;;5088097;28;19912;-68
2022/09/17 02:29:44;;;;;;;;;;;13.90;86.70;;;;;;5087343;28;21316;-68
2022/09/17 02:32:10;;;;;;;;;;;13.90;86.70;;;;;;5086979;28;20443;-69
2022/09/17 02:34:36;;;;;;;;;;;13.90;86.80;;;;;;5087383;28;19920;-68
2022/09/17 02:37:03;;;;;;;;;;;13.90;86.80;;;;;;5091145;28;19915;-68
2022/09/17 02:39:29;;;;;;;;;;;13.90;86.70;;;;;;5085218;28;20346;-68
2022/09/17 02:41:54;;;;;;;;;;;13.90;86.80;;;;;;5083448;28;19912;-68
2022/09/17 02:44:20;;;;;;;;;;;13.90;86.90;;;;;;5086260;28;19939;-68
2022/09/17 02:46:45;;;;;;;;;;;13.90;86.90;;;;;;5088161;28;19912;-68
2022/09/17 02:49:23;;;;;;;;;;;13.90;87.00;;;;;;5086319;28;19923;-68
2022/09/17 02:52:24;;;;;;;;;;;13.80;86.90;;;;;;5087822;28;19923;-68
2022/09/17 02:55:01;;;;;;;;;;;13.90;86.90;;;;;;5051939;28;19924;-68
2022/09/17 02:57:29;;;;;;;;;;;13.90;87.00;;;;;;5083846;28;19912;-68
2022/09/17 03:00:08;;;;;;;;;;;13.80;86.80;;;;;;5085357;28;19920;-68
2022/09/17 03:02:57;;;;;;;;;;;13.80;86.90;;;;;;5084350;28;19912;-68
2022/09/17 03:05:23;;;;;;;;;;;13.80;86.80;;;;;;5085864;28;19935;-68
2022/09/17 03:07:49;;;;;;;;;;;13.80;87.00;;;;;;5086287;28;19911;-68
2022/09/17 03:10:15;;;;;;;;;;;13.80;86.90;;;;;;5083432;28;20483;-68
2022/09/17 03:12:40;;;;;;;;;;;13.80;86.90;;;;;;5087667;28;19937;-68
2022/09/17 03:15:06;;;;;;;;;;;13.80;86.90;;;;;;5086614;28;20587;-68
2022/09/17 03:17:32;;;;;;;;;;;13.80;86.90;;;;;;5088353;28;19941;-68
2022/09/17 03:19:57;;;;;;;;;;;13.80;86.90;;;;;;5082963;28;20568;-68
2022/09/17 03:22:23;;;;;;;;;;;13.80;87.10;;;;;;5085393;28;19916;-68
2022/09/17 03:24:49;;;;;;;;;;;13.80;87.10;;;;;;5087467;28;19920;-68
2022/09/17 03:27:14;;;;;;;;;;;13.80;86.80;;;;;;5090993;28;19995;-68
2022/09/17 03:29:40;;;;;;;;;;;13.70;87.10;;;;;;5084848;28;19920;-68
2022/09/17 03:32:05;;;;;;;;;;;13.70;87.10;;;;;;5084449;28;20373;-68
2022/09/17 03:34:31;;;;;;;;;;;13.70;87.00;;;;;;5088669;28;19923;-68
2022/09/17 03:36:57;;;;;;;;;;;13.70;87.10;;;;;;5083944;28;19916;-68
2022/09/17 03:39:22;;;;;;;;;;;13.70;87.00;;;;;;5089559;28;20080;-68
2022/09/17 03:41:48;;;;;;;;;;;13.70;87.00;;;;;;5079732;28;19923;-68
2022/09/17 03:44:14;;;;;;;;;;;13.70;87.10;;;;;;5089552;28;19935;-68
2022/09/17 03:46:40;;;;;;;;;;;13.70;87.10;;;;;;5085600;28;19919;-68
2022/09/17 03:49:05;;;;;;;;;;;13.70;87.10;;;;;;5089349;28;20440;-68
2022/09/17 03:51:31;;;;;;;;;;;13.70;87.00;;;;;;5085544;28;19920;-68
2022/09/17 03:53:56;;;;;;;;;;;13.70;86.90;;;;;;5088360;28;19923;-68
2022/09/17 03:56:22;;;;;;;;;;;13.70;87.00;;;;;;5084821;28;19916;-68
2022/09/17 03:58:47;;;;;;;;;;;13.60;86.80;;;;;;5088207;28;19920;-68
2022/09/17 04:01:13;;;;;;;;;;;13.70;86.90;;;;;;5083926;28;19936;-68
2022/09/17 04:03:39;;;;;;;;;;;13.70;87.10;;;;;;5088005;28;20396;-68
2022/09/17 04:06:04;;;;;;;;;;;13.60;86.90;;;;;;5087555;28;19978;-68
2022/09/17 04:08:30;;;;;;;;;;;13.70;86.80;;;;;;5088350;28;19915;-68
2022/09/17 04:10:55;;;;;;;;;;;13.60;87.10;;;;;;5085588;28;19998;-68
2022/09/17 04:13:21;;;;;;;;;;;13.70;87.10;;;;;;5087208;28;20288;-68
2022/09/17 04:15:46;;;;;;;;;;;13.60;87.10;;;;;;5085196;28;19970;-68
2022/09/17 04:18:12;;;;;;;;;;;13.60;86.80;;;;;;5084230;28;19947;-68
2022/09/17 04:20:38;;;;;;;;;;;13.60;87.00;;;;;;5083378;28;19972;-68
2022/09/17 04:23:05;;;;;;;;;;;13.60;86.80;;;;;;5086128;28;19946;-68
2022/09/17 04:25:31;;;;;;;;;;;13.60;87.10;;;;;;5088219;28;19912;-68
2022/09/17 04:27:57;;;;;;;;;;;13.60;87.10;;;;;;5084472;28;20390;-68
2022/09/17 04:30:22;;;;;;;;;;;13.60;87.10;;;;;;5087898;28;19919;-68
2022/09/17 04:32:48;;;;;;;;;;;13.60;87.30;;;;;;5084242;28;19980;-68
2022/09/17 04:35:13;;;;;;;;;;;13.50;86.90;;;;;;5089429;28;19990;-68
2022/09/17 04:37:39;;;;;;;;;;;13.50;87.00;;;;;;5083437;28;19996;-68
2022/09/17 04:40:05;;;;;;;;;;;13.60;86.90;;;;;;5085890;28;19916;-68
2022/09/17 04:42:30;;;;;;;;;;;13.50;86.90;;;;;;5081930;28;19920;-68
2022/09/17 04:44:56;;;;;;;;;;;13.50;86.90;;;;;;5088477;28;19934;-68
2022/09/17 04:47:22;;;;;;;;;;;13.50;86.90;;;;;;5086571;28;19916;-68
2022/09/17 04:49:48;;;;;;;;;;;13.50;86.80;;;;;;5084329;28;19909;-68
2022/09/17 04:52:14;;;;;;;;;;;13.50;86.80;;;;;;5084485;28;19916;-68
2022/09/17 04:54:39;;;;;;;;;;;13.50;86.80;;;;;;5087114;28;19959;-68
2022/09/17 04:57:05;;;;;;;;;;;13.50;86.70;;;;;;5084648;28;19962;-68
2022/09/17 04:59:30;;;;;;;;;;;13.50;86.80;;;;;;5087696;28;19938;-68
2022/09/17 05:01:56;;;;;;;;;;;13.50;86.80;;;;;;5084493;28;20407;-68
2022/09/17 05:04:22;;;;;;;;;;;13.50;86.80;;;;;;5086201;28;19978;-67
2022/09/17 05:06:47;;;;;;;;;;;13.50;86.70;;;;;;5084792;28;19912;-68
2022/09/17 05:09:13;;;;;;;;;;;13.50;86.70;;;;;;5115657;27;19916;-68
2022/09/17 05:11:39;;;;;;;;;;;13.50;86.80;;;;;;5084442;28;19935;-68
2022/09/17 05:14:04;;;;;;;;;;;13.50;86.70;;;;;;5087709;28;19926;-68
2022/09/17 05:16:30;;;;;;;;;;;13.50;87.40;;;;;;5086353;28;20540;-68
2022/09/17 05:18:56;;;;;;;;;;;13.50;86.70;;;;;;5081481;28;19981;-68
2022/09/17 05:21:22;;;;;;;;;;;13.50;86.40;;;;;;5083538;28;20492;-68
2022/09/17 05:23:47;;;;;;;;;;;13.50;86.70;;;;;;5086402;28;19946;-68
2022/09/17 05:26:13;;;;;;;;;;;13.50;86.70;;;;;;5085243;28;20007;-68
2022/09/17 05:28:38;;;;;;;;;;;13.50;86.70;;;;;;5086747;28;20014;-68
2022/09/17 05:31:04;;;;;;;;;;;13.50;86.60;;;;;;5079955;28;20365;-68
2022/09/17 05:33:30;;;;;;;;;;;13.50;86.50;;;;;;5084003;28;19923;-68
2022/09/17 05:35:55;;;;;;;;;;;13.50;86.80;;;;;;5083972;28;20352;-68
2022/09/17 05:38:21;;;;;;;;;;;13.50;86.80;;;;;;5086754;28;20101;-68
2022/09/17 05:40:47;;;;;;;;;;;13.50;86.60;;;;;;5080285;28;19924;-68
2022/09/17 05:43:13;;;;;;;;;;;13.50;86.40;;;;;;5088544;28;19912;-68
2022/09/17 05:45:39;;;;;;;;;;;13.50;86.50;;;;;;5077754;28;20277;-68
2022/09/17 05:48:05;;;;;;;;;;;13.60;86.40;;;;;;5088446;28;20498;-68
2022/09/17 05:50:31;;;;;;;;;;;13.50;86.50;;;;;;5083907;28;20023;-68
2022/09/17 05:53:02;;;;;;;;;;;13.50;87.00;;;;;;5085860;28;19979;-67
2022/09/17 05:55:27;;;;;;;;;;;13.50;86.50;;;;;;5081345;28;19918;-68
2022/09/17 05:57:53;;;;;;;;;;;13.50;86.40;;;;;;5087806;28;19915;-67
2022/09/17 06:00:18;;;;;;;;;;;13.50;86.30;;;;;;5086880;28;19916;-67
2022/09/17 06:02:44;;;;;;;;;;;13.60;86.20;;;;;;5087453;28;19920;-67
2022/09/17 06:05:09;;;;;;;;;;;13.60;86.30;;;;;;5086314;28;19923;-68
2022/09/17 06:07:36;;;;;;;;;;;13.50;86.30;;;;;;5083275;28;20485;-68
2022/09/17 06:10:02;;;;;;;;;;;13.50;86.40;;;;;;5082577;28;19927;-68
2022/09/17 06:12:28;;;;;;;;;;;13.60;86.30;;;;;;5084172;28;20011;-68
2022/09/17 06:14:54;;;;;;;;;;;13.60;86.40;;;;;;5084194;28;19976;-68
2022/09/17 06:17:19;;;;;;;;;;;13.60;86.30;;;;;;5082525;28;19920;-68
2022/09/17 06:19:44;;;;;;;;;;;13.60;86.30;;;;;;5082315;28;19916;-68
2022/09/17 06:22:10;;;;;;;;;;;13.60;86.20;;;;;;5076884;28;20012;-67
2022/09/17 06:24:36;;;;;;;;;;;13.60;86.20;;;;;;5082308;28;19912;-67
2022/09/17 06:27:01;;;;;;;;;;;13.60;86.20;;;;;;5077278;28;19991;-68
2022/09/17 06:29:27;;;;;;;;;;;13.60;86.00;;;;;;5083132;28;19912;-68
2022/09/17 06:31:52;;;;;;;;;;;13.60;86.00;;;;;;5079944;28;19912;-67
2022/09/17 06:34:18;;;;;;;;;;;13.60;86.00;;;;;;5086299;28;20009;-68
2022/09/17 06:36:44;;;;;;;;;;;13.60;86.20;;;;;;5077980;28;20833;-68
2022/09/17 06:39:10;;;;;;;;;;;13.60;86.10;;;;;;5083060;28;20330;-68
2022/09/17 06:41:36;;;;;;;;;;;13.60;86.10;;;;;;5085717;28;19919;-67
2022/09/17 06:44:02;;;;;;;;;;;13.60;86.10;;;;;;5085563;28;20490;-68
2022/09/17 06:46:28;;;;;;;;;;;13.70;86.10;;;;;;5084749;28;19919;-68
2022/09/17 06:48:53;;;;;;;;;;;13.60;86.00;;;;;;5080942;28;19924;-68
2022/09/17 06:51:19;;;;;;;;;;;13.60;86.10;;;;;;5082870;28;20411;-67
2022/09/17 06:53:44;;;;;;;;;;;13.60;86.00;;;;;;5078911;28;19943;-68
2022/09/17 06:56:09;;;;;;;;;;;13.60;86.00;;;;;;5087555;28;19969;-67
2022/09/17 06:58:40;;;;;;;;;;;13.70;86.00;;;;;;5087407;28;19916;-68
2022/09/17 07:01:06;;;;;;;;;;;13.70;86.00;;;;;;5090497;28;19935;-68
2022/09/17 07:03:32;;;;;;;;;;;13.70;86.10;;;;;;5085905;28;19976;-68
2022/09/17 07:05:57;;;;;;;;;;;13.70;86.00;;;;;;5084893;28;19948;-66
2022/09/17 07:08:24;;;;;;;;;;;13.70;86.00;;;;;;5086944;28;19916;-66
2022/09/17 07:10:50;;;;;;;;;;;13.70;85.80;;;;;;5087936;28;20315;-66
2022/09/17 07:13:16;;;;;;;;;;;13.70;85.90;;;;;;5088208;28;19919;-65
2022/09/17 07:15:41;;;;;;;;;;;13.70;85.90;;;;;;5087803;28;19912;-66
2022/09/17 07:18:08;;;;;;;;;;;13.70;86.00;;;;;;5085980;28;19916;-66
2022/09/17 07:20:33;;;;;;;;;;;13.70;86.00;;;;;;5085306;28;19923;-66
2022/09/17 07:22:59;;;;;;;;;;;13.70;86.00;;;;;;5088895;28;19916;-66
2022/09/17 07:25:25;;;;;;;;;;;13.70;86.60;;;;;;5115064;27;20454;-66
2022/09/17 07:27:51;;;;;;;;;;;13.70;86.00;;;;;;5086938;28;20374;-65
2022/09/17 07:30:17;;;;;;;;;;;13.70;85.90;;;;;;5089777;28;19958;-66
2022/09/17 07:32:42;;;;;;;;;;;13.70;85.80;;;;;;5085315;28;19939;-65
2022/09/17 07:35:08;;;;;;;;;;;13.80;85.70;;;;;;5087664;28;19966;-65
2022/09/17 07:37:33;;;;;;;;;;;13.80;85.80;;;;;;5089260;28;19990;-65
2022/09/17 07:39:58;;;;;;;;;;;13.80;85.70;;;;;;5080848;28;19920;-65
2022/09/17 07:42:26;;;;;;;;;;;13.80;85.60;;;;;;5085878;28;20493;-66
2022/09/17 07:44:51;;;;;;;;;;;13.80;85.60;;;;;;5089115;28;20369;-66
2022/09/17 07:47:17;;;;;;;;;;;13.80;85.60;;;;;;5083620;28;19912;-65
2022/09/17 07:49:43;;;;;;;;;;;13.80;85.70;;;;;;5085873;28;19919;-66
2022/09/17 07:52:08;;;;;;;;;;;13.80;85.80;;;;;;5086697;28;20007;-66
2022/09/17 07:54:36;;;;;;;;;;;13.80;85.70;;;;;;5087219;28;19916;-66
2022/09/17 07:57:02;;;;;;;;;;;13.80;85.60;;;;;;5083355;28;19912;-66
2022/09/17 07:59:27;;;;;;;;;;;13.90;85.70;;;;;;5086115;28;20364;-65
2022/09/17 08:01:53;;;;;;;;;;;13.90;85.60;;;;;;5081829;28;19916;-66
2022/09/17 08:04:18;;;;;;;;;;;13.90;85.40;;;;;;5089736;28;19959;-66
2022/09/17 08:06:47;;;;;;;;;;;14.00;85.30;;;;;;5083617;28;19954;-66
2022/09/17 08:09:14;;;;;;;;;;;14.00;85.00;;;;;;5091408;28;20388;-66
2022/09/17 08:11:39;;;;;;;;;;;14.00;85.10;;;;;;5075524;28;20003;-65
2022/09/17 08:14:05;;;;;;;;;;;14.00;85.20;;;;;;5087219;28;20085;-65
2022/09/17 08:16:31;;;;;;;;;;;14.00;85.10;;;;;;5084868;28;19976;-66
2022/09/17 08:18:56;;;;;;;;;;;14.00;85.10;;;;;;5084621;28;19912;-66
2022/09/17 08:21:22;;;;;;;;;;;14.00;85.00;;;;;;5082603;28;19923;-66
2022/09/17 08:23:48;;;;;;;;;;;14.10;85.10;;;;;;5088722;28;19923;-66
2022/09/17 08:26:15;;;;;;;;;;;14.10;85.00;;;;;;5083464;28;19916;-66
2022/09/17 08:28:43;;;;;;;;;;;14.10;85.10;;;;;;5087715;28;19937;-66
2022/09/17 08:31:09;;;;;;;;;;;14.10;85.10;;;;;;5084968;28;20011;-66
2022/09/17 08:33:35;;;;;;;;;;;14.10;85.00;;;;;;5087209;28;19985;-65
2022/09/17 08:36:01;;;;;;;;;;;14.10;84.80;;;;;;5083588;28;19908;-65
2022/09/17 08:38:33;;;;;;;;;;;14.10;84.80;;;;;;5089654;28;20422;-66
2022/09/17 08:41:17;;;;;;;;;;;14.10;84.60;;;;;;5080245;28;20401;-66
2022/09/17 08:43:43;;;;;;;;;;;14.20;84.60;;;;;;5081783;28;19948;-66
2022/09/17 08:46:09;;;;;;;;;;;14.10;84.50;;;;;;5083718;28;19916;-66
2022/09/17 08:48:43;;;;;;;;;;;14.20;84.60;;;;;;5082085;28;20363;-66
2022/09/17 08:51:34;;;;;;;;;;;14.20;84.30;;;;;;5081446;28;19912;-66
2022/09/17 08:54:07;;;;;;;;;;;14.30;84.20;;;;;;5072080;28;19927;-66
2022/09/17 08:56:33;;;;;;;;;;;14.30;83.90;;;;;;5084254;28;20007;-66
2022/09/17 08:59:13;;;;;;;;;;;14.30;83.90;;;;;;5083988;28;19923;-66
2022/09/17 09:01:50;;;;;;;;;;;14.30;83.70;;;;;;5081331;28;19912;-66
2022/09/17 09:04:17;;;;;;;;;;;14.30;83.80;;;;;;5084871;28;19916;-65
2022/09/17 09:06:48;;;;;;;;;;;14.40;83.70;;;;;;5086272;28;20356;-66
2022/09/17 09:09:19;;;;;;;;;;;14.40;83.60;;;;;;5086176;28;19916;-65
2022/09/17 09:11:45;;;;;;;;;;;14.40;83.70;;;;;;5080085;28;19916;-66
2022/09/17 09:14:11;;;;;;;;;;;14.50;83.60;;;;;;5087202;28;19920;-65
2022/09/17 09:16:38;;;;;;;;;;;14.50;83.40;;;;;;5082832;28;19950;-66
2022/09/17 09:19:21;;;;;;;;;;;14.50;83.30;;;;;;5083925;28;20284;-66
2022/09/17 09:21:49;;;;;;;;;;;14.50;83.30;;;;;;5079455;28;20011;-65
2022/09/17 09:24:15;;;;;;;;;;;14.50;83.20;;;;;;5081929;28;20365;-66
2022/09/17 09:26:48;;;;;;;;;;;14.60;83.10;;;;;;5084923;28;19912;-65
2022/09/17 09:29:16;;;;;;;;;;;14.60;83.10;;;;;;5082397;28;19913;-66
2022/09/17 09:32:00;;;;;;;;;;;14.60;82.90;;;;;;5083797;28;20626;-66
2022/09/17 09:34:27;;;;;;;;;;;14.60;82.80;;;;;;5080539;28;19916;-66
2022/09/17 09:36:57;;;;;;;;;;;14.70;82.50;;;;;;5083330;28;20460;-66
2022/09/17 09:39:24;;;;;;;;;;;14.70;82.30;;;;;;5078905;28;19916;-66
2022/09/17 09:41:56;;;;;;;;;;;14.80;82.20;;;;;;5080399;28;20627;-65
2022/09/17 09:44:23;;;;;;;;;;;14.80;82.10;;;;;;5080594;28;19922;-66
2022/09/17 09:47:07;;;;;;;;;;;14.80;82.20;;;;;;5084433;28;19965;-65
2022/09/17 09:49:56;;;;;;;;;;;14.80;82.00;;;;;;5080899;28;19912;-65
2022/09/17 09:52:21;;;;;;;;;;;14.80;81.60;;;;;;5083554;28;20380;-66
2022/09/17 09:55:10;;;;;;;;;;;14.80;82.00;;;;;;5082476;28;19919;-66
2022/09/17 09:57:35;;;;;;;;;;;14.90;81.20;;;;;;5053759;28;19916;-66
2022/09/17 10:00:20;;;;;;;;;;;14.90;81.40;;;;;;5078633;28;19923;-66
2022/09/17 10:02:46;;;;;;;;;;;14.90;81.60;;;;;;5083515;28;19952;-66
2022/09/17 10:05:11;;;;;;;;;;;15.00;81.20;;;;;;5077465;28;20236;-65
2022/09/17 10:07:44;;;;;;;;;;;15.10;80.90;;;;;;5083161;28;20353;-66
2022/09/17 10:10:10;;;;;;;;;;;15.00;80.60;;;;;;5079304;28;20398;-66
2022/09/17 10:12:35;;;;;;;;;;;15.00;80.80;;;;;;5082282;28;19912;-66
2022/09/17 10:15:21;;;;;;;;;;;15.20;80.70;;;;;;5085959;28;19912;-66
2022/09/17 10:17:47;;;;;;;;;;;15.20;80.50;;;;;;5086972;28;19908;-66
2022/09/17 10:20:14;;;;;;;;;;;15.10;80.50;;;;;;5086014;28;20671;-66
2022/09/17 10:22:41;;;;;;;;;;;15.10;80.50;;;;;;5086187;28;19962;-68
2022/09/17 10:25:23;;;;;;;;;;;15.10;80.50;;;;;;5084359;28;19912;-70
2022/09/17 10:27:49;;;;;;;;;;;15.20;80.60;;;;;;5086069;28;19918;-68
2022/09/17 10:30:16;;;;;;;;;;;15.20;80.00;;;;;;5084671;28;19919;-68
2022/09/17 10:32:41;;;;;;;;;;;15.10;79.80;;;;;;5083649;28;19994;-69
2022/09/17 10:35:17;;;;;;;;;;;15.20;79.90;;;;;;5085122;28;19983;-68
2022/09/17 10:37:42;;;;;;;;;;;15.30;79.80;;;;;;5082359;28;19954;-68
2022/09/17 10:40:14;;;;;;;;;;;15.30;79.50;;;;;;5082452;28;20554;-68
2022/09/17 10:42:39;;;;;;;;;;;15.40;79.10;;;;;;5081916;28;19916;-68
2022/09/17 10:45:21;;;;;;;;;;;15.50;79.10;;;;;;5087248;28;19916;-67
2022/09/17 10:47:47;;;;;;;;;;;15.60;78.90;;;;;;5082472;28;19995;-68
2022/09/17 10:50:16;;;;;;;;;;;15.60;78.90;;;;;;5087332;28;20011;-67
2022/09/17 10:52:54;;;;;;;;;;;15.80;78.60;;;;;;5081250;28;20392;-67
2022/09/17 10:55:19;;;;;;;;;;;15.80;78.20;;;;;;5080202;28;19933;-67
2022/09/17 10:57:52;;;;;;;;;;;15.70;79.00;;;;;;5081527;28;20791;-67
2022/09/17 11:00:19;;;;;;;;;;;15.70;79.00;;;;;;5084298;28;19965;-67
2022/09/17 11:02:50;;;;;;;;;;;15.60;79.10;;;;;;5080902;28;19920;-67
2022/09/17 11:05:35;;;;;;;;;;;15.70;79.10;;;;;;5084397;28;20004;-67
2022/09/17 11:08:26;;;;;;;;;;;15.70;79.20;;;;;;5080798;28;20727;-67
2022/09/17 11:10:58;;;;;;;;;;;15.70;79.20;;;;;;5082086;28;19927;-67
2022/09/17 11:13:29;;;;;;;;;;;15.80;79.00;;;;;;5078447;28;19932;-68
2022/09/17 11:16:06;;;;;;;;;;;15.70;78.70;;;;;;5086352;28;20527;-67
2022/09/17 11:18:38;;;;;;;;;;;15.70;79.10;;;;;;5082410;28;19916;-67
2022/09/17 11:21:16;;;;;;;;;;;15.70;79.30;;;;;;5083958;28;19919;-67
2022/09/17 11:24:00;;;;;;;;;;;15.70;79.00;;;;;;5079796;28;19934;-66
2022/09/17 11:26:31;;;;;;;;;;;15.70;79.20;;;;;;5078841;28;19912;-68
2022/09/17 11:28:57;;;;;;;;;;;15.60;79.40;;;;;;5082575;28;19957;-67
2022/09/17 11:31:31;;;;;;;;;;;15.50;79.80;;;;;;5082862;28;19920;-67
2022/09/17 11:33:57;;;;;;;;;;;15.50;80.10;;;;;;5081671;28;20392;-67
2022/09/17 11:36:43;;;;;;;;;;;15.50;80.20;;;;;;5085541;28;19916;-67
2022/09/17 11:39:20;;;;;;;;;;;15.40;80.50;;;;;;5066347;28;19916;-67
2022/09/17 11:41:47;;;;;;;;;;;15.40;80.20;;;;;;5082996;28;19916;-67
2022/09/17 11:44:24;;;;;;;;;;;15.40;80.60;;;;;;5080728;28;19946;-67
2022/09/17 11:46:52;;;;;;;;;;;15.50;80.60;;;;;;5087251;28;19920;-67
2022/09/17 11:49:46;;;;;;;;;;;15.40;80.60;;;;;;5078907;28;20917;-67
2022/09/17 11:52:12;;;;;;;;;;;15.50;80.60;;;;;;5104003;27;19916;-67
2022/09/17 11:54:50;;;;;;;;;;;15.60;80.40;;;;;;5081537;28;19920;-67
2022/09/17 11:57:17;;;;;;;;;;;15.60;80.40;;;;;;5083635;28;19958;-67
2022/09/17 12:00:04;;;;;;;;;;;15.60;80.40;;;;;;5083349;28;19912;-67
2022/09/17 12:02:48;;;;;;;;;;;15.70;80.30;;;;;;5083072;28;20006;-67
2022/09/17 12:05:23;;;;;;;;;;;15.70;80.60;;;;;;5082935;28;19916;-66
2022/09/17 12:07:58;;;;;;;;;;;15.60;80.60;;;;;;5085879;28;19912;-67
2022/09/17 12:10:23;;;;;;;;;;;15.70;80.50;;;;;;5083519;28;19927;-67
2022/09/17 12:12:54;;;;;;;;;;;15.80;80.70;;;;;;5084809;28;19908;-67
2022/09/17 12:15:22;;;;;;;;;;;15.90;80.10;;;;;;5089028;28;19920;-66
2022/09/17 12:18:06;;;;;;;;;;;16.00;80.00;;;;;;5086208;28;19912;-67
2022/09/17 12:20:35;;;;;;;;;;;16.10;79.80;;;;;;5080604;28;19916;-66
2022/09/17 12:23:02;;;;;;;;;;;16.20;79.60;;;;;;5082667;28;19912;-67
2022/09/17 12:25:30;;;;;;;;;;;16.30;79.00;;;;;;5081989;28;19916;-67
2022/09/17 12:28:10;;;;;;;;;;;16.30;79.40;;;;;;5082661;28;19922;-67
2022/09/17 12:30:43;;;;;;;;;;;16.40;79.20;;;;;;5083124;28;19916;-67
2022/09/17 12:33:29;;;;;;;;;;;16.50;79.00;;;;;;5084889;28;19991;-67
2022/09/17 12:35:55;;;;;;;;;;;16.60;78.60;;;;;;5099654;27;20106;-67
2022/09/17 12:38:23;;;;;;;;;;;16.60;78.60;;;;;;5084116;28;19912;-67
2022/09/17 12:40:48;;;;;;;;;;;16.60;78.40;;;;;;5079050;28;19912;-67
2022/09/17 12:43:17;;;;;;;;;;;16.70;78.20;;;;;;5081910;28;20440;-67
2022/09/17 12:45:46;;;;;;;;;;;16.80;78.60;;;;;;5085130;28;20437;-67
2022/09/17 12:48:30;;;;;;;;;;;16.80;78.30;;;;;;5083834;28;19916;-67
2022/09/17 12:50:58;;;;;;;;;;;16.80;78.50;;;;;;5086019;28;19916;-67
2022/09/17 12:53:41;;;;;;;;;;;16.80;78.50;;;;;;5083319;28;20284;-66
2022/09/17 12:56:20;;;;;;;;;;;16.80;78.40;;;;;;5081525;28;19922;-67
2022/09/17 12:58:45;;;;;;;;;;;16.80;78.90;;;;;;5083112;28;20460;-66
2022/09/17 13:01:16;;;;;;;;;;;16.90;78.70;;;;;;5085347;28;19912;-66
2022/09/17 13:03:45;;;;;;;;;;;16.90;78.70;;;;;;5081677;28;19939;-67
2022/09/17 13:06:29;;;;;;;;;;;17.00;78.50;;;;;;5085544;28;19919;-67
2022/09/17 13:09:01;;;;;;;;;;;17.00;78.30;;;;;;5082555;28;19954;-67
2022/09/17 13:11:38;;;;;;;;;;;17.00;78.40;;;;;;5083649;28;20014;-66
2022/09/17 13:14:10;;;;;;;;;;;17.10;78.10;;;;;;5078965;28;19926;-66
2022/09/17 13:16:38;;;;;;;;;;;17.20;78.30;;;;;;5082689;28;20249;-66
2022/09/17 13:19:14;;;;;;;;;;;17.20;78.20;;;;;;5107824;27;21998;-68
2022/09/17 13:21:50;;;;;;;;;;;17.20;77.70;;;;;;5081983;28;19920;-66
2022/09/17 13:24:16;;;;;;;;;;;17.10;77.90;;;;;;5080219;28;19920;-67
2022/09/17 13:26:44;;;;;;;;;;;17.10;78.30;;;;;;5082131;28;19919;-68
2022/09/17 13:29:12;;;;;;;;;;;17.10;78.50;;;;;;5079883;28;19920;-66
2022/09/17 13:31:37;;;;;;;;;;;17.20;78.20;;;;;;5083184;28;19916;-68
2022/09/17 13:34:19;;;;;;;;;;;17.10;78.60;;;;;;5080895;28;19943;-68
2022/09/17 13:36:48;;;;;;;;;;;17.10;80.00;;;;;;5081314;28;19916;-69
2022/09/17 13:39:32;;;;;;;;;;;17.10;80.10;;;;;;5080530;28;19916;-68
2022/09/17 13:42:04;;;;;;;;;;;17.10;80.30;;;;;;5084536;28;21161;-68
2022/09/17 13:44:29;;;;;;;;;;;17.10;80.50;;;;;;5080571;28;19920;-68
2022/09/17 13:47:07;;;;;;;;;;;17.10;80.20;;;;;;5083574;28;20572;-69
2022/09/17 13:49:32;;;;;;;;;;;17.00;80.10;;;;;;5081156;28;19916;-69
2022/09/17 13:51:58;;;;;;;;;;;16.90;80.10;;;;;;5083390;28;20274;-69
2022/09/17 13:54:34;;;;;;;;;;;16.90;80.30;;;;;;5081010;28;19920;-68
2022/09/17 13:57:08;;;;;;;;;;;16.80;80.00;;;;;;5084771;28;19912;-69
2022/09/17 13:59:35;;;;;;;;;;;16.80;80.50;;;;;;5081461;28;19916;-70
2022/09/17 14:02:06;;;;;;;;;;;16.70;80.10;;;;;;5083493;28;19916;-70
2022/09/17 14:04:35;;;;;;;;;;;16.60;80.80;;;;;;5080425;28;19916;-70
2022/09/17 14:07:20;;;;;;;;;;;16.60;81.00;;;;;;5096392;28;19920;-69
2022/09/17 14:09:53;;;;;;;;;;;16.60;81.00;;;;;;5081039;28;20424;-69
2022/09/17 14:12:43;;;;;;;;;;;16.50;81.00;;;;;;5082265;28;19942;-69
2022/09/17 14:15:27;;;;;;;;;;;16.50;81.20;;;;;;5081552;28;19920;-69
2022/09/17 14:17:53;;;;;;;;;;;16.50;80.70;;;;;;5094537;28;19916;-69
2022/09/17 14:20:20;;;;;;;;;;;16.60;80.30;;;;;;5079843;28;20517;-69
2022/09/17 14:22:53;;;;;;;;;;;16.60;80.80;;;;;;5082216;28;19912;-69
2022/09/17 14:25:21;;;;;;;;;;;16.60;80.50;;;;;;5077449;28;19916;-69
2022/09/17 14:27:55;;;;;;;;;;;16.60;80.50;;;;;;5081173;28;19912;-69
2022/09/17 14:30:22;;;;;;;;;;;16.70;80.70;;;;;;5080297;28;19916;-69